createdAt,value
2023-03-21T00:01:53.945Z,3.33
2023-03-21T00:04:40.918Z,4.05
2023-03-21T00:09:47.241Z,3.42
2023-03-21T00:12:14.678Z,3.20
2023-03-21T00:14:44.881Z,3.55
2023-03-21T00:17:12.510Z,3.67
2023-03-21T00:19:45.326Z,3.28
2023-03-21T00:22:14.921Z,3.40
2023-03-21T00:24:42.226Z,4.50
2023-03-21T00:27:42.648Z,3.70
2023-03-21T00:30:09.799Z,3.53
2023-03-21T00:32:45.822Z,3.08
2023-03-21T00:36:12.372Z,3.73
2023-03-21T00:38:09.870Z,3.35
2023-03-21T00:40:43.681Z,3.55
2023-03-21T00:43:19.667Z,3.03
2023-03-21T00:45:46.984Z,4.28
2023-03-21T00:48:14.382Z,3.67
2023-03-21T00:50:43.571Z,4.13
2023-03-21T00:53:14.208Z,3.65
2023-03-21T00:58:08.597Z,4.07
2023-03-21T01:00:39.231Z,3.63
2023-03-21T01:03:23.332Z,4.07
2023-03-21T01:06:07.592Z,4.28
2023-03-21T01:08:52.274Z,3.83
2023-03-21T01:11:23.208Z,4.68
2023-03-21T01:13:56.036Z,4.15
2023-03-21T01:16:27.035Z,3.90
2023-03-21T01:18:56.398Z,4.13
2023-03-21T01:21:24.350Z,2.75
2023-03-21T01:23:59.963Z,3.88
2023-03-21T01:26:32.145Z,4.75
2023-03-21T01:28:59.473Z,4.07
2023-03-21T01:31:29.053Z,3.65
2023-03-21T01:33:56.746Z,4.50
2023-03-21T01:36:26.240Z,3.95
2023-03-21T01:39:01.849Z,3.87
2023-03-21T01:41:42.955Z,4.03
2023-03-21T01:44:15.083Z,4.03
2023-03-21T01:46:51.872Z,4.32
2023-03-21T01:49:34.352Z,4.50
2023-03-21T01:52:12.181Z,4.28
2023-03-21T01:54:43.965Z,4.03
2023-03-21T01:57:19.894Z,4.95
2023-03-21T01:59:51.881Z,4.70
2023-03-21T02:02:27.651Z,3.95
2023-03-21T02:04:59.812Z,4.25
2023-03-21T02:07:29.338Z,3.50
2023-03-21T02:09:59.486Z,3.60
2023-03-21T02:12:31.046Z,4.00
2023-03-21T02:15:01.496Z,3.95
2023-03-21T02:17:49.152Z,3.65
2023-03-21T02:23:15.746Z,4.13
2023-03-21T02:26:01.281Z,3.95
2023-03-21T02:28:39.573Z,4.50
2023-03-21T02:31:26.769Z,4.20
2023-03-21T02:34:15.335Z,3.58
2023-03-21T02:36:51.344Z,3.35
2023-03-21T02:39:26.554Z,4.68
2023-03-21T02:41:53.890Z,4.45
2023-03-21T02:44:28.218Z,4.22
2023-03-21T02:47:05.921Z,3.65
2023-03-21T02:50:02.992Z,4.18
2023-03-21T02:52:39.063Z,4.03
2023-03-21T02:55:13.542Z,4.78
2023-03-21T02:57:43.744Z,4.35
2023-03-21T03:00:23.019Z,4.93
2023-03-21T03:02:54.573Z,4.18
2023-03-21T03:05:28.166Z,4.43
2023-03-21T03:08:17.287Z,5.15
2023-03-21T03:10:45.840Z,5.18
2023-03-21T03:13:21.676Z,4.35
2023-03-21T03:16:07.720Z,5.03
2023-03-21T03:18:42.345Z,4.53
2023-03-21T03:21:16.902Z,4.85
2023-03-21T03:23:58.539Z,5.07
2023-03-21T03:26:34.812Z,3.78
2023-03-21T03:29:05.581Z,4.32
2023-03-21T03:31:38.571Z,3.80
2023-03-21T03:34:11.116Z,4.35
2023-03-21T03:36:43.014Z,4.18
2023-03-21T03:39:14.149Z,4.15
2023-03-21T03:42:05.926Z,4.40
2023-03-21T03:44:33.447Z,4.22
2023-03-21T03:47:03.850Z,4.97
2023-03-21T03:49:35.201Z,4.43
2023-03-21T03:52:05.523Z,4.25
2023-03-21T03:54:40.499Z,6.75
2023-03-21T03:57:08.660Z,4.47
2023-03-21T03:59:39.675Z,4.22
2023-03-21T04:02:07.020Z,4.65
2023-03-21T04:04:34.589Z,4.65
2023-03-21T04:07:06.518Z,4.82
2023-03-21T04:09:44.638Z,4.22
2023-03-21T04:12:14.389Z,4.45
2023-03-21T04:14:46.016Z,5.05
2023-03-21T04:17:14.381Z,4.60
2023-03-21T04:19:43.667Z,5.88
2023-03-21T04:22:11.005Z,3.90
2023-03-21T04:24:41.444Z,4.63
2023-03-21T04:27:11.539Z,4.18
2023-03-21T04:29:41.376Z,3.88
2023-03-21T04:32:16.392Z,4.80
2023-03-21T04:34:50.071Z,4.25
2023-03-21T04:37:23.662Z,4.20
2023-03-21T04:39:51.602Z,4.50
2023-03-21T04:42:21.980Z,4.55
2023-03-21T04:44:52.633Z,5.38
2023-03-21T04:49:58.022Z,4.75
2023-03-21T04:52:25.721Z,4.13
2023-03-21T04:54:55.393Z,4.43
2023-03-21T04:57:29.804Z,5.80
2023-03-21T04:59:57.073Z,4.45
2023-03-21T05:02:26.654Z,5.03
2023-03-21T05:04:56.439Z,4.72
2023-03-21T05:07:28.841Z,4.37
2023-03-21T05:09:57.993Z,5.10
2023-03-21T05:12:25.334Z,5.22
2023-03-21T05:14:52.663Z,4.55
2023-03-21T05:17:25.798Z,9.10
2023-03-21T05:19:53.080Z,6.20
2023-03-21T05:22:26.690Z,5.15
2023-03-21T05:24:58.173Z,5.90
2023-03-21T05:27:37.178Z,5.40
2023-03-21T05:30:12.203Z,7.15
2023-03-21T05:32:42.504Z,4.90
2023-03-21T05:35:17.518Z,5.70
2023-03-21T05:37:44.844Z,5.70
2023-03-21T05:40:15.465Z,6.75
2023-03-21T05:45:12.688Z,4.65
2023-03-21T05:47:42.541Z,5.35
2023-03-21T05:50:10.408Z,6.57
2023-03-21T05:52:37.903Z,5.18
2023-03-21T05:55:12.649Z,5.18
2023-03-21T05:57:41.084Z,6.28
2023-03-21T06:00:13.843Z,5.80
2023-03-21T06:02:42.166Z,5.85
2023-03-21T06:05:13.294Z,6.05
2023-03-21T06:07:43.090Z,5.20
2023-03-21T06:10:18.069Z,6.57
2023-03-21T06:12:45.479Z,5.65
2023-03-21T06:15:12.907Z,5.80
2023-03-21T06:17:45.194Z,5.25
2023-03-21T06:20:15.468Z,5.65
2023-03-21T06:22:55.682Z,4.85
2023-03-21T06:25:22.993Z,5.03
2023-03-21T06:30:33.321Z,4.93
2023-03-21T06:33:00.512Z,5.32
2023-03-21T06:35:27.984Z,5.38
2023-03-21T06:40:57.268Z,6.10
2023-03-21T06:43:24.587Z,5.03
2023-03-21T06:45:59.645Z,6.10
2023-03-21T06:48:32.017Z,6.07
2023-03-21T06:50:59.640Z,5.03
2023-03-21T06:53:35.068Z,5.65
2023-03-21T06:56:15.549Z,6.72
2023-03-21T06:58:43.172Z,6.22
2023-03-21T07:01:10.652Z,5.40
2023-03-21T07:03:37.982Z,5.47
2023-03-21T07:06:07.349Z,5.53
2023-03-21T07:08:34.701Z,6.32
2023-03-21T07:11:02.134Z,7.30
2023-03-21T07:13:40.782Z,6.18
2023-03-21T07:16:10.847Z,6.07
2023-03-21T07:18:38.454Z,8.73
2023-03-21T07:21:06.006Z,5.43
2023-03-21T07:23:38.596Z,6.13
2023-03-21T07:26:05.876Z,5.35
2023-03-21T07:28:33.834Z,5.28
2023-03-21T07:31:02.747Z,6.00
2023-03-21T07:33:32.700Z,5.47
2023-03-21T07:36:08.356Z,5.78
2023-03-21T07:38:46.208Z,5.70
2023-03-21T07:41:23.245Z,4.65
2023-03-21T07:44:03.093Z,4.82
2023-03-21T07:46:38.134Z,5.68
2023-03-21T07:49:18.414Z,5.43
2023-03-21T07:51:48.390Z,5.93
2023-03-21T07:57:31.861Z,6.82
2023-03-21T08:00:01.699Z,8.35
2023-03-21T08:02:34.597Z,6.55
2023-03-21T08:05:02.421Z,7.38
2023-03-21T08:07:35.315Z,7.65
2023-03-21T08:10:02.921Z,7.65
2023-03-21T08:12:34.708Z,9.77
2023-03-21T08:15:04.636Z,9.75
2023-03-21T08:17:31.937Z,8.13
2023-03-21T08:20:08.985Z,9.40
2023-03-21T08:22:36.950Z,9.93
2023-03-21T08:25:05.578Z,9.35
2023-03-21T08:27:33.332Z,9.63
2023-03-21T08:30:00.857Z,10.13
2023-03-21T08:32:30.272Z,10.05
2023-03-21T08:37:44.103Z,9.45
2023-03-21T08:40:16.169Z,10.63
2023-03-21T08:42:54.384Z,13.27
2023-03-21T08:45:42.324Z,14.45
2023-03-21T08:48:21.129Z,11.77
2023-03-21T08:50:51.405Z,10.77
2023-03-21T08:53:23.467Z,10.93
2023-03-21T08:55:53.331Z,10.35
2023-03-21T08:58:24.767Z,11.25
2023-03-21T09:00:52.847Z,11.63
2023-03-21T09:03:20.298Z,11.23
2023-03-21T09:05:50.631Z,13.05
2023-03-21T09:08:21.117Z,12.43
2023-03-21T09:10:51.322Z,11.88
2023-03-21T09:13:20.807Z,14.15
2023-03-21T09:15:49.911Z,12.95
2023-03-21T09:18:18.203Z,9.73
2023-03-21T09:20:51.761Z,13.52
2023-03-21T09:23:19.832Z,15.23
2023-03-21T09:26:12.498Z,13.45
2023-03-21T09:28:40.452Z,12.00
2023-03-21T09:31:11.209Z,16.42
2023-03-21T09:33:40.355Z,15.00
2023-03-21T09:36:14.470Z,11.85
2023-03-21T09:38:45.734Z,13.50
2023-03-21T09:41:21.435Z,11.48
2023-03-21T09:43:58.677Z,12.15
2023-03-21T09:46:45.132Z,11.90
2023-03-21T09:49:17.384Z,11.15
2023-03-21T09:51:54.166Z,10.85
2023-03-21T09:54:28.076Z,14.32
2023-03-21T09:56:58.290Z,12.85
2023-03-21T09:59:44.658Z,12.05
2023-03-21T10:02:36.071Z,13.27
2023-03-21T10:05:13.399Z,11.15
2023-03-21T10:07:44.883Z,12.65
2023-03-21T10:10:18.089Z,12.98
2023-03-21T10:12:46.535Z,13.20
2023-03-21T10:15:19.216Z,10.82
2023-03-21T10:17:57.680Z,11.90
2023-03-21T10:20:27.218Z,10.38
2023-03-21T10:22:55.514Z,12.20
2023-03-21T10:25:36.657Z,12.43
2023-03-21T10:28:08.944Z,12.10
2023-03-21T10:30:45.706Z,10.27
2023-03-21T10:33:15.028Z,9.23
2023-03-21T10:35:50.684Z,9.68
2023-03-21T10:38:19.512Z,9.65
2023-03-21T10:40:46.877Z,10.07
2023-03-21T10:43:29.058Z,10.32
2023-03-21T10:45:57.851Z,9.25
2023-03-21T10:48:27.688Z,9.00
2023-03-21T10:50:59.144Z,9.23
2023-03-21T10:53:29.321Z,9.48
2023-03-21T10:56:08.140Z,10.05
2023-03-21T10:58:48.757Z,9.05
2023-03-21T11:03:51.194Z,6.97
2023-03-21T11:06:25.732Z,8.10
2023-03-21T11:08:57.766Z,8.55
2023-03-21T11:11:27.895Z,8.32
2023-03-21T11:14:06.810Z,7.00
2023-03-21T11:16:42.112Z,8.43
2023-03-21T11:19:20.172Z,7.82
2023-03-21T11:21:48.179Z,7.88
2023-03-21T11:24:30.491Z,7.40
2023-03-21T11:26:58.932Z,8.18
2023-03-21T11:29:46.460Z,7.30
2023-03-21T11:32:17.528Z,6.97
2023-03-21T11:34:44.745Z,8.20
2023-03-21T11:37:19.030Z,7.78
2023-03-21T11:39:55.984Z,8.07
2023-03-21T11:42:30.842Z,6.00
2023-03-21T11:45:15.247Z,6.45
2023-03-21T11:47:42.661Z,7.03
2023-03-21T11:50:17.748Z,7.22
2023-03-21T11:53:08.137Z,8.50
2023-03-21T11:55:43.139Z,7.05
2023-03-21T12:01:04.927Z,7.25
2023-03-21T12:03:47.287Z,6.63
2023-03-21T12:06:22.387Z,8.40
2023-03-21T12:08:54.702Z,7.00
2023-03-21T12:11:26.035Z,8.40
2023-03-21T12:13:53.256Z,8.25
2023-03-21T12:16:22.386Z,7.75
2023-03-21T12:22:03.960Z,7.50
2023-03-21T12:24:33.886Z,8.60
2023-03-21T12:35:30.520Z,9.23
2023-03-21T12:38:10.416Z,9.68
2023-03-21T12:40:46.067Z,9.93
2023-03-21T12:45:50.701Z,8.32
2023-03-21T12:48:40.033Z,7.55
2023-03-21T12:51:14.730Z,8.30
2023-03-21T12:54:00.105Z,10.00
2023-03-21T12:56:54.095Z,7.72
2023-03-21T12:59:51.991Z,10.10
2023-03-21T13:02:23.536Z,9.18
2023-03-21T13:04:55.676Z,8.18
2023-03-21T13:07:25.241Z,9.55
2023-03-21T13:09:55.317Z,9.60
2023-03-21T13:12:32.200Z,8.70
2023-03-21T13:21:02.216Z,8.45
2023-03-21T13:23:51.213Z,7.18
2023-03-21T13:26:26.050Z,8.25
2023-03-21T13:28:53.287Z,8.40
2023-03-21T13:31:22.896Z,8.73
2023-03-21T13:33:56.562Z,7.90
2023-03-21T13:36:28.745Z,6.60
2023-03-21T13:39:00.674Z,6.32
2023-03-21T13:41:41.498Z,7.82
2023-03-21T13:44:36.077Z,7.28
2023-03-21T13:47:25.791Z,7.13
2023-03-21T13:50:34.899Z,7.37
2023-03-21T13:53:13.866Z,6.90
2023-03-21T13:55:50.274Z,7.72
2023-03-21T13:58:42.702Z,7.55
2023-03-21T14:11:44.387Z,6.30
2023-03-21T14:14:15.547Z,6.85
2023-03-21T14:16:42.865Z,7.32
2023-03-21T14:19:11.893Z,7.23
2023-03-21T14:22:22.864Z,6.28
2023-03-21T14:24:58.296Z,6.35
2023-03-21T14:27:26.567Z,6.35
2023-03-21T14:29:53.900Z,6.65
2023-03-21T14:32:23.848Z,5.82
2023-03-21T14:34:50.977Z,7.15
2023-03-21T14:37:53.477Z,6.47
2023-03-21T14:40:25.608Z,5.32
2023-03-21T14:42:58.939Z,5.97
2023-03-21T14:45:27.979Z,5.75
2023-03-21T14:47:56.302Z,5.13
2023-03-21T14:50:25.338Z,6.40
2023-03-21T14:52:54.199Z,6.03
2023-03-21T14:55:21.212Z,5.95
2023-03-21T15:00:22.993Z,6.50
2023-03-21T15:02:50.167Z,5.40
2023-03-21T15:05:45.150Z,4.68
2023-03-21T15:11:08.329Z,4.20
2023-03-21T15:13:46.479Z,4.10
2023-03-21T15:16:16.830Z,3.78
2023-03-21T15:18:45.226Z,2.20
2023-03-21T15:21:22.189Z,3.28
2023-03-21T15:23:51.657Z,3.10
2023-03-21T15:26:19.823Z,5.15
2023-03-21T15:28:48.091Z,3.53
2023-03-21T15:31:19.333Z,3.42
2023-03-21T15:33:50.339Z,3.38
2023-03-21T15:39:09.508Z,3.03
2023-03-21T15:41:37.294Z,3.00
2023-03-21T15:44:10.535Z,3.33
2023-03-21T15:46:41.943Z,3.10
2023-03-21T15:49:14.845Z,3.70
2023-03-21T15:51:43.169Z,3.33
2023-03-21T15:54:16.239Z,3.95
2023-03-21T15:56:45.972Z,3.42
2023-03-21T15:59:17.818Z,3.65
2023-03-21T16:01:48.830Z,3.72
2023-03-21T16:04:18.461Z,3.92
2023-03-21T16:06:58.312Z,3.78
2023-03-21T16:09:25.785Z,3.05
2023-03-21T16:11:54.332Z,4.05
2023-03-21T16:14:22.129Z,2.85
2023-03-21T16:16:49.765Z,2.72
2023-03-21T16:19:17.212Z,3.00
2023-03-21T16:21:44.251Z,3.22
2023-03-21T16:24:23.374Z,3.63
2023-03-21T16:26:51.699Z,3.35
2023-03-21T16:29:19.678Z,3.63
2023-03-21T16:31:48.215Z,3.28
2023-03-21T16:34:15.403Z,3.72
2023-03-21T16:36:43.852Z,3.35
2023-03-21T16:39:24.860Z,3.80
2023-03-21T16:41:51.938Z,3.20
2023-03-21T16:44:19.874Z,3.08
2023-03-21T16:46:47.161Z,4.00
2023-03-21T16:49:24.727Z,3.83
2023-03-21T16:51:52.232Z,3.40
2023-03-21T16:54:25.869Z,3.55
2023-03-21T16:56:54.090Z,3.10
2023-03-21T16:59:21.326Z,3.20
2023-03-21T17:01:49.007Z,3.03
2023-03-21T17:04:17.474Z,3.92
2023-03-21T17:06:49.247Z,3.45
2023-03-21T17:09:19.887Z,3.70
2023-03-21T17:11:47.076Z,3.75
2023-03-21T17:14:17.717Z,3.00
2023-03-21T17:16:45.326Z,3.05
2023-03-21T17:19:13.467Z,4.05
2023-03-21T17:21:40.804Z,3.40
2023-03-21T17:29:48.862Z,3.58
2023-03-21T17:32:15.926Z,3.75
2023-03-21T17:34:42.961Z,3.47
2023-03-21T17:37:12.485Z,4.22
2023-03-21T17:39:42.781Z,4.55
2023-03-21T17:44:40.804Z,4.35
2023-03-21T17:47:07.851Z,2.95
2023-03-21T17:49:34.959Z,3.42
2023-03-21T17:52:01.972Z,3.97
2023-03-21T17:54:29.057Z,4.18
2023-03-21T17:59:36.431Z,3.25
2023-03-21T18:02:03.715Z,3.05
2023-03-21T18:04:31.042Z,3.85
2023-03-21T18:07:01.081Z,3.60
2023-03-21T18:09:28.476Z,4.13
2023-03-21T18:12:04.566Z,3.67
2023-03-21T18:14:31.987Z,3.97
2023-03-21T18:16:59.543Z,4.13
2023-03-21T18:19:27.157Z,4.13
2023-03-21T18:21:54.188Z,3.92
2023-03-21T18:24:21.235Z,4.05
2023-03-21T18:32:37.628Z,3.40
2023-03-21T18:35:05.693Z,3.95
2023-03-21T18:37:35.245Z,3.83
2023-03-21T18:40:05.292Z,4.88
2023-03-21T18:42:32.388Z,3.40
2023-03-21T18:47:30.844Z,4.30
2023-03-21T18:50:13.038Z,4.00
2023-03-21T18:52:41.289Z,3.83
2023-03-21T18:55:09.094Z,4.57
2023-03-21T18:57:38.218Z,3.75
2023-03-21T19:00:12.605Z,4.40
2023-03-21T19:03:09.904Z,4.00
2023-03-21T19:08:21.137Z,3.50
2023-03-21T19:10:48.943Z,3.83
2023-03-21T19:13:16.109Z,3.28
2023-03-21T19:15:43.293Z,4.38
2023-03-21T19:21:01.175Z,3.63
2023-03-21T19:23:39.843Z,3.00
2023-03-21T19:29:14.942Z,3.75
2023-03-21T19:31:44.996Z,3.78
2023-03-21T19:34:13.824Z,3.67
2023-03-21T19:36:45.645Z,3.63
2023-03-21T19:39:21.697Z,4.38
2023-03-21T19:41:54.383Z,4.20
2023-03-21T19:44:24.744Z,4.25
2023-03-21T19:46:51.796Z,3.08
2023-03-21T19:49:22.564Z,3.75
2023-03-21T19:51:52.447Z,3.55
2023-03-21T19:54:19.453Z,3.63
2023-03-21T19:56:48.184Z,3.97
2023-03-21T19:59:15.747Z,4.32
2023-03-21T20:01:43.372Z,4.03
2023-03-21T20:04:10.660Z,3.65
2023-03-21T20:06:38.490Z,3.60
2023-03-21T20:09:43.206Z,3.60
2023-03-21T20:11:53.362Z,3.70
2023-03-21T20:17:12.683Z,4.35
2023-03-21T20:19:39.797Z,3.95
2023-03-21T20:22:20.229Z,3.63
2023-03-21T20:24:56.783Z,3.90
2023-03-21T20:27:25.260Z,3.63
2023-03-21T20:30:09.153Z,3.55
2023-03-21T20:32:37.772Z,1.63
2023-03-21T20:35:18.838Z,3.60
2023-03-21T20:37:49.578Z,3.80
2023-03-21T20:40:20.244Z,1.92
2023-03-21T20:45:16.953Z,3.40
2023-03-21T20:47:44.021Z,3.05
2023-03-21T20:53:06.592Z,3.08
2023-03-21T20:55:34.775Z,3.35
2023-03-21T20:58:03.017Z,2.33
2023-03-21T21:00:30.133Z,2.30
2023-03-21T21:02:58.768Z,2.42
2023-03-21T21:05:30.647Z,2.75
2023-03-21T21:08:00.674Z,2.63
2023-03-21T21:10:28.827Z,3.63
2023-03-21T21:12:56.106Z,3.58
2023-03-21T21:15:23.328Z,3.75
2023-03-21T21:18:08.542Z,2.63
2023-03-21T21:20:36.930Z,2.67
2023-03-21T21:23:04.313Z,3.58
2023-03-21T21:25:34.658Z,2.20
2023-03-21T21:28:02.128Z,2.92
2023-03-21T21:30:29.402Z,2.95
2023-03-21T21:32:59.517Z,2.70
2023-03-21T21:35:26.653Z,3.53
2023-03-21T21:37:53.822Z,2.60
2023-03-21T21:40:23.133Z,2.10
2023-03-21T21:42:50.275Z,2.30
2023-03-21T21:45:18.305Z,2.75
2023-03-21T21:47:46.320Z,3.20
2023-03-21T21:50:22.166Z,2.25
2023-03-21T21:52:54.393Z,3.13
2023-03-21T21:55:21.520Z,3.05
2023-03-21T21:57:50.516Z,3.00
2023-03-21T22:00:19.291Z,3.45
2023-03-21T22:02:47.064Z,2.67
2023-03-21T22:05:17.508Z,3.10
2023-03-21T22:07:44.541Z,2.70
2023-03-21T22:10:11.605Z,3.67
2023-03-21T22:12:38.657Z,3.55
2023-03-21T22:15:07.142Z,2.35
2023-03-21T22:17:35.180Z,3.25
2023-03-21T22:22:40.194Z,4.43
2023-03-21T22:25:08.590Z,3.55
2023-03-21T22:27:36.025Z,3.88
2023-03-21T22:30:04.289Z,3.33
2023-03-21T22:32:31.988Z,4.22
2023-03-21T22:37:36.787Z,2.97
2023-03-21T22:40:06.668Z,4.03
2023-03-21T22:42:33.727Z,3.22
2023-03-21T22:45:01.456Z,3.17
2023-03-21T22:47:28.489Z,4.03
2023-03-21T22:52:38.481Z,4.30
2023-03-21T22:55:06.053Z,4.00
2023-03-21T22:57:33.124Z,4.63
2023-03-21T23:00:00.163Z,4.75
2023-03-21T23:02:27.328Z,4.63
2023-03-21T23:07:35.376Z,4.30
2023-03-21T23:10:02.857Z,5.43
2023-03-21T23:12:29.952Z,5.80
2023-03-21T23:14:56.909Z,5.40
2023-03-21T23:17:26.842Z,5.53
2023-03-21T23:20:01.489Z,4.25
2023-03-21T23:22:32.697Z,6.13
2023-03-21T23:24:59.752Z,6.40
2023-03-21T23:27:26.841Z,5.28
2023-03-21T23:29:54.210Z,5.57
2023-03-21T23:32:22.336Z,6.40
2023-03-21T23:37:31.188Z,6.00
2023-03-21T23:39:58.263Z,6.93
2023-03-21T23:42:25.631Z,6.10
2023-03-21T23:44:52.589Z,6.72
2023-03-21T23:47:19.729Z,6.53
2023-03-21T23:52:19.453Z,6.50
2023-03-21T23:54:46.656Z,7.43
2023-03-21T23:57:13.868Z,6.50
2023-03-21T23:59:40.839Z,7.32
